Greensburg, Ohio
Current Conditions -  °F | °C
As of 8:51 PM on Tuesday 25 Nov 2014 (Local Time) from KCAK Reporting Station
Overcast Overcast  
Wind Chill: 28°   Ceiling: 1700
Heat Index: 34°   Visibility: 9mi
Dew Point: 27°   Wind: 7mph
Humidity: 75%   Direction: 320°NW
Pressure: 30.17"   Gusts: NA
Location:  40.9318°N, 81.465°W
Report Text: KCAK 260151Z 32006KT 9SM BKN017 OVC032 01/M03 A3017 RMK AO2 SLP228 T00111028
Loading
Personal Weather Stations






























Interactive Weather Map New forecast layout! Learn more

10-Day Weather Forecast

Advertisements
Track Severe Weather on mobile